Filia Ariea — PIET — position and weather

sailwx.info

Track history (hours):
 
Tides and Currents Weather Stations Pressure Air Temp Water Temp Dewpoint Dewpoint Depression Visibility Wind Speed Wind Dir Waves Ship Positions

Filia Ariea

Last reported at 2016-Jul-25 16:32 UTC. Time now 2016-Jul-25 21:58 UTC.
Position N 58°27' E 005°02'.

Length 90 m; draft 4 m.

Type: Ship. MMSI: 244662000.

Date/timePositionNaut miles runAvg speedWind from/ knotsBaromVisibWave heightAir tempDewpointWater temp
2016-Jul-25 16:32N 58°27' E 005°02'1110.9
2016-Jul-25 15:34N 58°38' E 005°07'1110.6
2016-Jul-25 14:33N 58°48' E 005°12'1010.0
2016-Jul-25 13:33N 58°58' E 005°16'1010.0
2016-Jul-25 12:33N 59°08' E 005°20'10 9.7
2016-Jul-25 11:33N 59°17' E 005°20'1 1.3
2016-Jul-25 10:28N 59°19' E 005°19'0 0.0
2016-Jul-25 09:30N 59°19' E 005°19'0 0.0
2016-Jul-25 08:33N 59°19' E 005°19'0 0.0
2016-Jul-25 07:32N 59°19' E 005°19'0 0.0
2016-Jul-25 06:29N 59°19' E 005°19'0 0.0
2016-Jul-25 05:29N 59°19' E 005°19'0 0.0
2016-Jul-25 04:31N 59°19' E 005°19'0 0.0
2016-Jul-25 03:31N 59°19' E 005°19'0 0.0
2016-Jul-25 02:33N 59°19' E 005°19'0 0.0
2016-Jul-25 01:27N 59°19' E 005°19'0 0.0
2016-Jul-25 00:32N 59°19' E 005°19'0 0.0
2016-Jul-24 00:19N 59°19' E 005°19'0 0.0
2016-Jul-23 23:31N 59°19' E 005°19'0 0.0
2016-Jul-23 22:21N 59°19' E 005°19'2 2.5
2016-Jul-23 21:31N 59°17' E 005°20'6 6.5
2016-Jul-23 20:33N 59°11' E 005°21'8 7.9
2016-Jul-23 19:33N 59°09' E 005°06'1110.4
2016-Jul-23 18:29N 59°20' E 004°58'244 9.0
2016-Jul-22 15:27N 63°10' E 007°44'  
2016-Jul-18 00:18N 58°41' W 002°35'810.3
2016-Jul-17 23:33N 58°36' W 002°46'  
Track history (hours):
 
Tides and Currents Weather Stations Pressure Air Temp Water Temp Dewpoint Dewpoint Depression Visibility Wind Speed Wind Dir Waves Ship Positions

Filia Ariea

Last reported at 2016-Jul-25 16:32 UTC. Time now 2016-Jul-25 21:58 UTC.
Position N 58°27' E 005°02'.

Length 90 m; draft 4 m.

Type: Ship. MMSI: 244662000.

Date/timePositionNaut miles runAvg speedWind from/ knotsBaromVisibWave heightAir tempDewpointWater temp
2016-Jul-25 16:32N 58°27' E 005°02'1110.9
2016-Jul-25 15:34N 58°38' E 005°07'1110.6
2016-Jul-25 14:33N 58°48' E 005°12'1010.0
2016-Jul-25 13:33N 58°58' E 005°16'1010.0
2016-Jul-25 12:33N 59°08' E 005°20'10 9.7
2016-Jul-25 11:33N 59°17' E 005°20'1 1.3
2016-Jul-25 10:28N 59°19' E 005°19'0 0.0
2016-Jul-25 09:30N 59°19' E 005°19'0 0.0
2016-Jul-25 08:33N 59°19' E 005°19'0 0.0
2016-Jul-25 07:32N 59°19' E 005°19'0 0.0
2016-Jul-25 06:29N 59°19' E 005°19'0 0.0
2016-Jul-25 05:29N 59°19' E 005°19'0 0.0
2016-Jul-25 04:31N 59°19' E 005°19'0 0.0
2016-Jul-25 03:31N 59°19' E 005°19'0 0.0
2016-Jul-25 02:33N 59°19' E 005°19'0 0.0
2016-Jul-25 01:27N 59°19' E 005°19'0 0.0
2016-Jul-25 00:32N 59°19' E 005°19'0 0.0
2016-Jul-24 00:19N 59°19' E 005°19'0 0.0
2016-Jul-23 23:31N 59°19' E 005°19'0 0.0
2016-Jul-23 22:21N 59°19' E 005°19'2 2.5
2016-Jul-23 21:31N 59°17' E 005°20'6 6.5
2016-Jul-23 20:33N 59°11' E 005°21'8 7.9
2016-Jul-23 19:33N 59°09' E 005°06'1110.4
2016-Jul-23 18:29N 59°20' E 004°58'244 9.0
2016-Jul-22 15:27N 63°10' E 007°44'  
2016-Jul-18 00:18N 58°41' W 002°35'810.3
2016-Jul-17 23:33N 58°36' W 002°46'  

Dump ship's entire track history